Puntzi Mountain, Canada
Current Conditions -  °F | °C
As of 2:00 PM on Saturday 25 Oct 2014 (Local Time) from CYWL Reporting Station
Overcast Overcast  
Wind Chill: -1°   Ceiling: 3000
Heat Index:   Visibility: 15mi
Dew Point:   Wind: 5mph
Humidity: 93%   Direction: 20°NNE
Pressure: 29.42"   Gusts: NA
Location:  52.12°N, 124.13°W
Report Text: CYWL 252100Z 02004KT 15SM BKN030 OVC070 01/00 A2942 RMK SC7AC1 SLP989
Loading
Personal Weather Stations






























Interactive Weather Map
Tropical Storm Tracking
New forecast layout! Learn more

10-Day Weather Forecast

Advertisements
Track Severe Weather on mobile